createdAt,value
2022-11-15T00:01:08.195Z,100884.16
2022-11-15T00:03:34.942Z,100879.97
2022-11-15T00:06:05.468Z,100881.56
2022-11-15T00:08:33.637Z,100872.78
2022-11-15T00:11:02.284Z,100874.94
2022-11-15T00:13:29.901Z,100871.09
2022-11-15T00:16:01.743Z,100872.56
2022-11-15T00:18:28.882Z,100873.59
2022-11-15T00:20:55.646Z,100873.31
2022-11-15T00:23:22.330Z,100874.66
2022-11-15T00:25:57.394Z,100864.75
2022-11-15T00:28:24.277Z,100861.59
2022-11-15T00:30:50.813Z,100862.84
2022-11-15T00:33:17.730Z,100870.81
2022-11-15T00:35:44.327Z,100862.84
2022-11-15T00:38:10.991Z,100860.66
2022-11-15T00:40:37.633Z,100869.03
2022-11-15T00:43:04.169Z,100859.12
2022-11-15T00:45:30.721Z,100857.09
2022-11-15T00:47:57.314Z,100860.13
2022-11-15T00:50:23.946Z,100854.13
2022-11-15T00:52:50.530Z,100843.91
2022-11-15T00:55:18.312Z,100845.59
2022-11-15T00:57:45.291Z,100836.59
2022-11-15T01:00:12.920Z,100839.41
2022-11-15T01:02:39.726Z,100836.47
2022-11-15T01:05:06.610Z,100832.75
2022-11-15T01:07:33.240Z,100836.66
2022-11-15T01:09:59.914Z,100839.38
2022-11-15T01:12:26.520Z,100831.00
2022-11-15T01:14:53.091Z,100834.38
2022-11-15T01:17:22.051Z,100834.72
2022-11-15T01:19:48.703Z,100819.28
2022-11-15T01:22:15.268Z,100818.25
2022-11-15T01:24:41.886Z,100811.78
2022-11-15T01:27:11.745Z,100818.28
2022-11-15T01:29:38.301Z,100809.59
2022-11-15T01:32:05.172Z,100809.28
2022-11-15T01:34:34.744Z,100808.41
2022-11-15T01:37:01.372Z,100816.56
2022-11-15T01:39:28.404Z,100807.41
2022-11-15T01:42:00.247Z,100809.22
2022-11-15T01:44:35.851Z,100807.47
2022-11-15T01:47:06.575Z,100805.91
2022-11-15T01:49:36.160Z,100805.31
2022-11-15T01:52:08.331Z,100809.59
2022-11-15T01:54:35.107Z,100802.84
2022-11-15T01:57:09.158Z,100804.38
2022-11-15T01:59:37.334Z,100805.78
2022-11-15T02:02:03.985Z,100806.72
2022-11-15T02:04:37.270Z,100806.44
2022-11-15T02:07:06.268Z,100797.75
2022-11-15T02:09:35.342Z,100800.84
2022-11-15T02:12:02.002Z,100790.78
2022-11-15T02:14:30.818Z,100790.78
2022-11-15T02:17:18.228Z,100787.91
2022-11-15T02:20:00.176Z,100794.97
2022-11-15T02:22:26.662Z,100785.75
2022-11-15T02:25:30.817Z,100783.41
2022-11-15T02:28:24.886Z,100786.56
2022-11-15T02:31:06.920Z,100777.59
2022-11-15T02:34:01.046Z,100767.75
2022-11-15T02:36:53.709Z,100758.34
2022-11-15T02:39:36.386Z,100766.25
2022-11-15T02:42:34.732Z,100763.25
2022-11-15T02:45:07.634Z,100760.31
2022-11-15T02:47:42.328Z,100760.22
2022-11-15T02:50:13.559Z,100761.34
2022-11-15T02:52:40.503Z,100762.44
2022-11-15T02:55:29.458Z,100759.78
2022-11-15T02:58:33.804Z,100757.78
2022-11-15T03:01:05.839Z,100765.38
2022-11-15T03:03:53.716Z,100764.72
2022-11-15T03:06:20.190Z,100758.53
2022-11-15T03:08:52.581Z,100754.91
2022-11-15T03:11:23.038Z,100767.59
2022-11-15T03:14:15.692Z,100764.47
2022-11-15T03:17:01.032Z,100766.41
2022-11-15T03:19:40.318Z,100761.53
2022-11-15T03:22:12.600Z,100759.28
2022-11-15T03:24:39.822Z,100757.69
2022-11-15T03:27:13.519Z,100758.84
2022-11-15T03:29:48.341Z,100753.72
2022-11-15T03:32:23.649Z,100752.22
2022-11-15T03:35:02.139Z,100738.75
2022-11-15T03:37:53.595Z,100732.09
2022-11-15T03:40:25.877Z,100743.91
2022-11-15T03:43:24.929Z,100746.44
2022-11-15T03:46:05.489Z,100734.75
2022-11-15T03:48:34.758Z,100736.25
2022-11-15T03:51:02.276Z,100730.72
2022-11-15T03:53:31.822Z,100729.91
2022-11-15T03:55:59.132Z,100720.56
2022-11-15T03:58:25.701Z,100712.84
2022-11-15T04:00:52.355Z,100706.44
2022-11-15T04:03:19.012Z,100688.00
2022-11-15T04:05:45.553Z,100695.72
2022-11-15T04:08:12.161Z,100693.66
2022-11-15T04:10:38.774Z,100682.38
2022-11-15T04:13:05.354Z,100681.44
2022-11-15T04:15:31.940Z,100680.03
2022-11-15T04:17:58.748Z,100681.31
2022-11-15T04:20:46.563Z,100701.28
2022-11-15T04:23:37.510Z,100705.94
2022-11-15T04:26:11.214Z,100699.81
2022-11-15T04:29:00.647Z,100700.78
2022-11-15T04:31:27.937Z,100692.84
2022-11-15T04:33:55.258Z,100691.13
2022-11-15T04:36:40.934Z,100703.22
2022-11-15T04:39:07.619Z,100687.13
2022-11-15T04:41:34.360Z,100681.09
2022-11-15T04:44:01.040Z,100677.28
2022-11-15T04:46:30.218Z,100680.66
2022-11-15T04:48:58.846Z,100675.03
2022-11-15T04:51:26.205Z,100683.84
2022-11-15T04:53:52.822Z,100674.41
2022-11-15T04:56:19.511Z,100668.78
2022-11-15T04:58:46.062Z,100667.72
2022-11-15T05:01:15.824Z,100674.97
2022-11-15T05:04:04.570Z,100670.78
2022-11-15T05:06:31.624Z,100665.69
2022-11-15T05:08:58.701Z,100663.44
2022-11-15T05:11:28.432Z,100665.53
2022-11-15T05:13:55.070Z,100664.22
2022-11-15T05:16:21.652Z,100670.38
2022-11-15T05:18:51.183Z,100676.31
2022-11-15T05:21:20.251Z,100678.13
2022-11-15T05:23:46.821Z,100673.59
2022-11-15T05:26:14.165Z,100676.38
2022-11-15T05:28:40.700Z,100672.50
2022-11-15T05:31:14.142Z,100681.69
2022-11-15T05:33:42.214Z,100679.91
2022-11-15T05:36:18.719Z,100679.44
2022-11-15T05:38:49.711Z,100684.59
2022-11-15T05:41:19.898Z,100681.22
2022-11-15T05:43:49.797Z,100673.00
2022-11-15T05:46:16.618Z,100668.66
2022-11-15T05:48:49.579Z,100664.97
2022-11-15T05:51:18.262Z,100661.59
2022-11-15T05:53:46.012Z,100662.53
2022-11-15T05:56:13.485Z,100655.59
2022-11-15T05:58:40.116Z,100652.38
2022-11-15T06:01:06.825Z,100651.72
2022-11-15T06:03:33.568Z,100652.19
2022-11-15T06:06:00.319Z,100657.87
2022-11-15T06:08:26.958Z,100653.38
2022-11-15T06:11:03.689Z,100654.31
2022-11-15T06:13:30.785Z,100651.59
2022-11-15T06:15:57.858Z,100651.75
2022-11-15T06:18:24.390Z,100654.84
2022-11-15T06:20:51.167Z,100658.19
2022-11-15T06:23:18.447Z,100654.19
2022-11-15T06:25:45.016Z,100660.00
2022-11-15T06:28:11.559Z,100654.84
2022-11-15T06:30:38.109Z,100651.91
2022-11-15T06:33:06.308Z,100664.81
2022-11-15T06:35:35.502Z,100656.28
2022-11-15T06:38:07.914Z,100669.34
2022-11-15T06:40:39.425Z,100663.22
2022-11-15T06:43:06.773Z,100661.44
2022-11-15T06:45:33.781Z,100668.38
2022-11-15T06:48:00.345Z,100678.19
2022-11-15T06:50:26.928Z,100664.81
2022-11-15T06:52:53.480Z,100664.03
2022-11-15T06:55:20.123Z,100657.72
2022-11-15T06:57:50.759Z,100653.84
2022-11-15T07:00:19.805Z,100659.19
2022-11-15T07:02:47.450Z,100661.25
2022-11-15T07:05:15.375Z,100673.34
2022-11-15T07:07:42.230Z,100664.78
2022-11-15T07:10:09.743Z,100665.81
2022-11-15T07:12:36.346Z,100673.78
2022-11-15T07:15:03.099Z,100679.84
2022-11-15T07:17:29.620Z,100684.53
2022-11-15T07:19:56.227Z,100680.66
2022-11-15T07:22:22.791Z,100661.34
2022-11-15T07:24:49.342Z,100658.91
2022-11-15T07:27:16.016Z,100656.31
2022-11-15T07:29:42.616Z,100656.63
2022-11-15T07:32:10.373Z,100663.00
2022-11-15T07:34:36.937Z,100658.38
2022-11-15T07:37:03.775Z,100647.03
2022-11-15T07:39:30.340Z,100649.09
2022-11-15T07:42:16.835Z,100651.88
2022-11-15T07:44:43.410Z,100654.78
2022-11-15T07:47:10.063Z,100658.06
2022-11-15T07:49:36.575Z,100642.97
2022-11-15T07:52:03.207Z,100654.41
2022-11-15T07:54:29.752Z,100645.12
2022-11-15T07:56:56.318Z,100645.28
2022-11-15T07:59:22.867Z,100640.97
2022-11-15T08:01:49.588Z,100633.78
2022-11-15T08:04:16.329Z,100634.00
2022-11-15T08:06:42.942Z,100639.06
2022-11-15T08:09:09.466Z,100646.84
2022-11-15T08:11:36.493Z,100634.97
2022-11-15T08:14:03.059Z,100630.72
2022-11-15T08:16:29.621Z,100633.66
2022-11-15T08:18:56.162Z,100638.84
2022-11-15T08:21:23.284Z,100632.38
2022-11-15T08:23:50.011Z,100631.69
2022-11-15T08:26:16.655Z,100625.56
2022-11-15T08:28:43.588Z,100624.78
2022-11-15T08:31:18.703Z,100622.38
2022-11-15T08:33:45.524Z,100616.56
2022-11-15T08:36:17.309Z,100613.66
2022-11-15T08:38:44.212Z,100609.22
2022-11-15T08:41:17.911Z,100619.63
2022-11-15T08:43:44.439Z,100620.91
2022-11-15T08:46:14.673Z,100614.56
2022-11-15T08:48:41.206Z,100616.81
2022-11-15T08:51:07.855Z,100601.81
2022-11-15T08:53:34.855Z,100604.56
2022-11-15T08:56:01.589Z,100605.28
2022-11-15T08:58:28.141Z,100591.50
2022-11-15T09:00:54.823Z,100589.59
2022-11-15T09:03:21.421Z,100590.22
2022-11-15T09:05:48.013Z,100585.97
2022-11-15T09:08:45.613Z,100594.22
2022-11-15T09:11:07.150Z,100582.47
2022-11-15T09:13:34.116Z,100597.59
2022-11-15T09:16:01.947Z,100589.44
2022-11-15T09:18:28.723Z,100591.19
2022-11-15T09:20:59.363Z,100571.50
2022-11-15T09:23:26.273Z,100571.09
2022-11-15T09:25:54.248Z,100570.09
2022-11-15T09:28:20.856Z,100570.72
2022-11-15T09:30:47.477Z,100569.78
2022-11-15T09:33:14.298Z,100561.63
2022-11-15T09:35:41.953Z,100561.81
2022-11-15T09:38:08.792Z,100554.34
2022-11-15T09:40:38.361Z,100562.37
2022-11-15T09:43:16.588Z,100570.66
2022-11-15T09:46:10.633Z,100565.25
2022-11-15T09:48:58.126Z,100554.12
2022-11-15T09:51:47.956Z,100550.94
2022-11-15T09:57:16.356Z,100553.62
2022-11-15T09:59:43.109Z,100553.28
2022-11-15T10:02:34.473Z,100552.06
2022-11-15T10:05:02.392Z,100547.62
2022-11-15T10:07:47.525Z,100544.00
2022-11-15T10:10:29.354Z,100552.69
2022-11-15T10:12:56.609Z,100537.66
2022-11-15T10:15:23.860Z,100528.87
2022-11-15T10:18:05.513Z,100536.09
2022-11-15T10:20:40.418Z,100539.94
2022-11-15T10:23:11.371Z,100530.44
2022-11-15T10:25:39.350Z,100522.56
2022-11-15T10:28:31.463Z,100523.69
2022-11-15T10:31:00.274Z,100528.59
2022-11-15T10:33:26.775Z,100526.16
2022-11-15T10:36:19.957Z,100521.75
2022-11-15T10:38:49.338Z,100517.81
2022-11-15T10:41:28.681Z,100523.25
2022-11-15T10:44:13.535Z,100510.06
2022-11-15T10:46:47.058Z,100507.41
2022-11-15T10:49:29.493Z,100494.78
2022-11-15T10:51:57.944Z,100491.81
2022-11-15T10:54:29.122Z,100494.34
2022-11-15T10:56:59.401Z,100482.66
2022-11-15T10:59:31.840Z,100486.59
2022-11-15T11:02:01.494Z,100478.13
2022-11-15T11:04:28.222Z,100466.12
2022-11-15T11:06:57.277Z,100458.56
2022-11-15T11:09:34.934Z,100456.25
2022-11-15T11:12:01.864Z,100445.84
2022-11-15T11:14:34.704Z,100446.31
2022-11-15T11:17:12.824Z,100442.78
2022-11-15T11:20:07.299Z,100458.63
2022-11-15T11:23:14.342Z,100443.03
2022-11-15T11:25:45.708Z,100439.38
2022-11-15T11:28:27.466Z,100447.34
2022-11-15T11:31:15.901Z,100446.09
2022-11-15T11:33:45.260Z,100442.94
2022-11-15T11:36:14.713Z,100445.78
2022-11-15T11:38:50.599Z,100439.09
2022-11-15T11:41:35.353Z,100426.81
2022-11-15T11:44:26.947Z,100431.59
2022-11-15T11:47:11.769Z,100418.56
2022-11-15T11:49:50.547Z,100418.59
2022-11-15T11:52:22.907Z,100423.66
2022-11-15T11:55:00.329Z,100421.34
2022-11-15T11:57:34.186Z,100424.53
2022-11-15T12:00:16.595Z,100419.09
2022-11-15T12:02:49.461Z,100418.22
2022-11-15T12:05:51.306Z,100415.06
2022-11-15T12:08:54.500Z,100411.88
2022-11-15T12:11:45.213Z,100401.06
2022-11-15T12:14:27.538Z,100399.47
2022-11-15T12:16:54.166Z,100395.97
2022-11-15T12:19:20.726Z,100389.53
2022-11-15T12:22:00.408Z,100383.63
2022-11-15T12:24:45.723Z,100375.97
2022-11-15T12:27:44.691Z,100374.38
2022-11-15T12:30:19.849Z,100360.84
2022-11-15T12:32:59.232Z,100359.25
2022-11-15T12:35:51.650Z,100343.31
2022-11-15T12:38:53.134Z,100345.97
2022-11-15T12:41:20.776Z,100346.75
2022-11-15T12:43:49.667Z,100351.09
2022-11-15T12:46:24.435Z,100348.16
2022-11-15T12:48:54.192Z,100340.06
2022-11-15T12:51:23.154Z,100339.06
2022-11-15T12:53:49.711Z,100350.78
2022-11-15T12:56:16.212Z,100344.56
2022-11-15T12:58:55.754Z,100338.75
2022-11-15T13:01:31.518Z,100330.88
2022-11-15T13:04:20.308Z,100335.53
2022-11-15T13:06:48.504Z,100338.87
2022-11-15T13:09:30.296Z,100337.47
2022-11-15T13:11:58.792Z,100340.56
2022-11-15T13:14:45.438Z,100334.44
2022-11-15T13:17:21.143Z,100338.13
2022-11-15T13:20:01.565Z,100342.41
2022-11-15T13:22:47.949Z,100340.53
2022-11-15T13:25:44.914Z,100340.38
2022-11-15T13:28:17.636Z,100342.00
2022-11-15T13:30:59.799Z,100330.19
2022-11-15T13:33:36.712Z,100321.94
2022-11-15T13:36:08.430Z,100309.72
2022-11-15T13:38:39.918Z,100305.91
2022-11-15T13:41:23.321Z,100303.41
2022-11-15T13:43:52.185Z,100291.56
2022-11-15T13:46:21.924Z,100290.84
2022-11-15T13:48:54.719Z,100291.81
2022-11-15T13:51:25.855Z,100291.75
2022-11-15T13:54:10.116Z,100292.34
2022-11-15T13:56:37.557Z,100299.69
2022-11-15T13:59:31.558Z,100299.50
2022-11-15T14:02:03.661Z,100285.75
2022-11-15T14:04:34.794Z,100279.62
2022-11-15T14:07:03.486Z,100282.19
2022-11-15T14:09:33.759Z,100274.97
2022-11-15T14:12:01.959Z,100277.13
2022-11-15T14:14:30.514Z,100272.94
2022-11-15T14:17:00.213Z,100264.37
2022-11-15T14:19:27.049Z,100270.41
2022-11-15T14:22:15.325Z,100265.97
2022-11-15T14:24:43.991Z,100251.16
2022-11-15T14:27:29.196Z,100258.72
2022-11-15T14:29:56.189Z,100253.75
2022-11-15T14:32:26.014Z,100254.00
2022-11-15T14:35:02.182Z,100251.16
2022-11-15T14:37:34.592Z,100234.47
2022-11-15T14:40:02.867Z,100237.78
2022-11-15T14:42:29.830Z,100234.69
2022-11-15T14:44:56.610Z,100224.94
2022-11-15T14:47:23.223Z,100215.41
2022-11-15T14:49:49.788Z,100218.62
2022-11-15T14:52:37.302Z,100216.41
2022-11-15T14:55:12.453Z,100221.44
2022-11-15T14:57:39.051Z,100221.91
2022-11-15T15:00:06.375Z,100210.66
2022-11-15T15:02:32.965Z,100217.72
2022-11-15T15:05:02.119Z,100223.25
2022-11-15T15:07:28.940Z,100225.47
2022-11-15T15:10:11.334Z,100220.13
2022-11-15T15:12:42.657Z,100210.69
2022-11-15T15:15:17.799Z,100218.97
2022-11-15T15:17:44.490Z,100213.50
2022-11-15T15:20:11.730Z,100211.03
2022-11-15T15:22:38.688Z,100207.47
2022-11-15T15:25:27.861Z,100206.47
2022-11-15T15:27:55.630Z,100203.47
2022-11-15T15:30:24.174Z,100207.28
2022-11-15T15:32:50.766Z,100213.97
2022-11-15T15:35:19.198Z,100215.72
2022-11-15T15:37:47.351Z,100218.84
2022-11-15T15:40:21.615Z,100220.41
2022-11-15T15:42:49.239Z,100215.72
2022-11-15T15:45:17.230Z,100221.09
2022-11-15T15:47:43.971Z,100218.12
2022-11-15T15:50:31.084Z,100218.50
2022-11-15T15:53:01.759Z,100215.47
2022-11-15T15:55:29.043Z,100216.72
2022-11-15T15:57:56.304Z,100211.00
2022-11-15T16:00:25.702Z,100204.22
2022-11-15T16:02:53.432Z,100199.06
2022-11-15T16:05:20.284Z,100199.34
2022-11-15T16:07:48.483Z,100200.16
2022-11-15T16:10:35.550Z,100194.91
2022-11-15T16:13:05.190Z,100193.53
2022-11-15T16:15:32.684Z,100199.84
2022-11-15T16:18:01.256Z,100198.25
2022-11-15T16:20:32.641Z,100193.31
2022-11-15T16:23:04.415Z,100193.75
2022-11-15T16:25:47.472Z,100196.97
2022-11-15T16:28:24.237Z,100207.88
2022-11-15T16:31:04.328Z,100189.84
2022-11-15T16:33:31.359Z,100190.22
2022-11-15T16:35:58.285Z,100184.81
2022-11-15T16:38:24.924Z,100179.87
2022-11-15T16:40:51.539Z,100181.81
2022-11-15T16:43:18.413Z,100186.34
2022-11-15T16:45:45.144Z,100191.34
2022-11-15T16:48:22.535Z,100184.50
2022-11-15T16:50:49.223Z,100187.38
2022-11-15T16:53:15.826Z,100183.41
2022-11-15T16:55:42.395Z,100182.38
2022-11-15T16:58:10.598Z,100176.47
2022-11-15T17:00:37.319Z,100170.78
2022-11-15T17:03:03.979Z,100174.62
2022-11-15T17:05:30.643Z,100169.16
2022-11-15T17:07:57.258Z,100166.91
2022-11-15T17:10:25.386Z,100162.97
2022-11-15T17:12:52.962Z,100162.25
2022-11-15T17:15:19.874Z,100156.06
2022-11-15T17:17:52.205Z,100156.25
2022-11-15T17:20:20.692Z,100160.19
2022-11-15T17:22:47.537Z,100158.47
2022-11-15T17:25:14.263Z,100154.94
2022-11-15T17:27:40.867Z,100150.41
2022-11-15T17:30:15.770Z,100146.56
2022-11-15T17:32:45.027Z,100147.00
2022-11-15T17:35:15.539Z,100147.81
2022-11-15T17:37:42.470Z,100149.84
2022-11-15T17:40:09.726Z,100142.66
2022-11-15T17:42:36.353Z,100142.19
2022-11-15T17:45:09.253Z,100139.41
2022-11-15T17:47:36.621Z,100132.72
2022-11-15T17:50:03.644Z,100127.31
2022-11-15T17:52:30.265Z,100117.81
2022-11-15T17:54:56.955Z,100119.38
2022-11-15T17:57:23.613Z,100114.25
2022-11-15T17:59:50.252Z,100105.19
2022-11-15T18:02:16.913Z,100112.56
2022-11-15T18:04:43.729Z,100111.16
2022-11-15T18:07:12.421Z,100105.69
2022-11-15T18:09:42.371Z,100104.63
2022-11-15T18:12:10.037Z,100104.22
2022-11-15T18:14:36.709Z,100100.00
2022-11-15T18:17:03.549Z,100102.91
2022-11-15T18:19:30.228Z,100096.94
2022-11-15T18:21:57.035Z,100100.38
2022-11-15T18:24:28.550Z,100098.34
2022-11-15T18:26:58.477Z,100094.34
2022-11-15T18:29:27.803Z,100092.75
2022-11-15T18:32:01.784Z,100096.75
2022-11-15T18:34:32.617Z,100092.19
2022-11-15T18:37:01.484Z,100096.69
2022-11-15T18:39:28.166Z,100092.94
2022-11-15T18:41:54.843Z,100092.84
2022-11-15T18:44:21.583Z,100082.78
2022-11-15T18:46:48.505Z,100075.50
2022-11-15T18:49:22.749Z,100080.94
2022-11-15T18:51:49.404Z,100078.75
2022-11-15T18:54:17.110Z,100074.50
2022-11-15T18:56:47.237Z,100072.59
2022-11-15T18:59:15.328Z,100077.34
2022-11-15T19:01:48.327Z,100070.56
2022-11-15T19:04:18.533Z,100074.00
2022-11-15T19:06:48.411Z,100057.87
2022-11-15T19:09:17.594Z,100062.66
2022-11-15T19:11:45.701Z,100061.81
2022-11-15T19:14:14.703Z,100064.22
2022-11-15T19:16:44.844Z,100061.50
2022-11-15T19:19:15.160Z,100064.88
2022-11-15T19:21:42.436Z,100054.59
2022-11-15T19:24:10.508Z,100051.66
2022-11-15T19:26:37.971Z,100056.59
2022-11-15T19:29:06.328Z,100054.56
2022-11-15T19:31:33.235Z,100046.84
2022-11-15T19:34:01.593Z,100057.87
2022-11-15T19:36:32.542Z,100039.53
2022-11-15T19:39:05.202Z,100037.72
2022-11-15T19:41:32.143Z,100034.53
2022-11-15T19:44:12.116Z,100037.56
2022-11-15T19:49:48.504Z,100028.44
2022-11-15T19:52:24.925Z,100033.53
2022-11-15T19:55:04.495Z,100023.94
2022-11-15T19:57:39.484Z,100023.28
2022-11-15T20:00:10.342Z,100008.75
2022-11-15T20:02:46.463Z,100005.59
2022-11-15T20:05:38.146Z,100013.37
2022-11-15T20:08:32.849Z,100010.63
2022-11-15T20:11:04.622Z,100003.94
2022-11-15T20:13:35.746Z,99997.47
2022-11-15T20:16:25.676Z,99999.84
2022-11-15T20:18:59.799Z,99992.19
2022-11-15T20:21:33.245Z,99983.50
2022-11-15T20:24:05.746Z,99980.13
2022-11-15T20:26:47.820Z,99980.13
2022-11-15T20:29:26.583Z,99973.78
2022-11-15T20:31:56.261Z,99982.94
2022-11-15T20:34:43.794Z,99979.00
2022-11-15T20:37:13.685Z,99987.16
2022-11-15T20:42:32.350Z,99971.81
2022-11-15T20:45:03.942Z,99979.84
2022-11-15T20:47:32.451Z,99968.63
2022-11-15T20:50:40.502Z,99968.69
2022-11-15T20:53:00.683Z,99961.59
2022-11-15T20:55:29.900Z,99973.41
2022-11-15T20:57:56.577Z,99964.81
2022-11-15T21:00:25.843Z,99963.44
2022-11-15T21:02:54.393Z,99966.44
2022-11-15T21:05:21.749Z,99962.50
2022-11-15T21:07:48.442Z,99964.41
2022-11-15T21:10:33.809Z,99962.69
2022-11-15T21:13:00.553Z,99958.84
2022-11-15T21:15:27.206Z,99951.88
2022-11-15T21:17:53.835Z,99953.72
2022-11-15T21:20:21.580Z,99944.75
2022-11-15T21:22:48.658Z,99935.47
2022-11-15T21:25:15.438Z,99940.22
2022-11-15T21:27:42.135Z,99940.56
2022-11-15T21:30:09.155Z,99933.00
2022-11-15T21:32:35.789Z,99920.78
2022-11-15T21:35:02.363Z,99919.47
2022-11-15T21:37:28.969Z,99919.28
2022-11-15T21:39:55.604Z,99913.34
2022-11-15T21:42:22.196Z,99912.84
2022-11-15T21:44:48.790Z,99912.28
2022-11-15T21:47:15.727Z,99924.19
2022-11-15T21:49:42.340Z,99909.31
2022-11-15T21:52:08.977Z,99922.66
2022-11-15T21:54:35.670Z,99912.69
2022-11-15T21:57:02.262Z,99908.34
2022-11-15T21:59:28.876Z,99908.16
2022-11-15T22:02:14.043Z,99908.94
2022-11-15T22:04:40.756Z,99916.13
2022-11-15T22:07:07.461Z,99909.75
2022-11-15T22:09:34.063Z,99910.00
2022-11-15T22:12:03.129Z,99912.78
2022-11-15T22:14:29.732Z,99916.91
2022-11-15T22:16:56.336Z,99911.53
2022-11-15T22:19:23.034Z,99913.72
2022-11-15T22:21:49.774Z,99901.28
2022-11-15T22:24:16.578Z,99898.81
2022-11-15T22:26:43.336Z,99896.81
2022-11-15T22:29:10.092Z,99892.09
2022-11-15T22:31:36.877Z,99885.09
2022-11-15T22:34:04.052Z,99879.25
2022-11-15T22:36:46.837Z,99880.47
2022-11-15T22:39:19.044Z,99869.47
2022-11-15T22:41:45.825Z,99871.28
2022-11-15T22:44:12.653Z,99870.66
2022-11-15T22:46:39.443Z,99863.91
2022-11-15T22:49:06.988Z,99866.34
2022-11-15T22:51:33.776Z,99864.00
2022-11-15T22:54:00.584Z,99859.62
2022-11-15T22:56:27.315Z,99857.03
2022-11-15T22:58:54.063Z,99853.47
2022-11-15T23:01:22.066Z,99849.09
2022-11-15T23:03:49.031Z,99849.72
2022-11-15T23:06:15.819Z,99851.09
2022-11-15T23:08:42.945Z,99847.47
2022-11-15T23:11:29.658Z,99834.59
2022-11-15T23:13:56.796Z,99838.91
2022-11-15T23:16:25.722Z,99824.34
2022-11-15T23:18:58.260Z,99826.19
2022-11-15T23:21:55.631Z,99830.19
2022-11-15T23:24:22.806Z,99821.38
2022-11-15T23:26:52.344Z,99814.84
2022-11-15T23:29:21.677Z,99825.19
2022-11-15T23:32:06.906Z,99815.66
2022-11-15T23:34:37.449Z,99816.44
2022-11-15T23:37:04.277Z,99812.06
2022-11-15T23:39:31.743Z,99803.53
2022-11-15T23:42:01.152Z,99800.31
2022-11-15T23:44:31.307Z,99808.53
2022-11-15T23:46:58.071Z,99801.88
2022-11-15T23:49:24.855Z,99799.53
2022-11-15T23:51:51.712Z,99797.16
2022-11-15T23:54:18.475Z,99793.91
2022-11-15T23:56:46.622Z,99790.13
2022-11-15T23:59:13.416Z,99793.13
